createdAt,value
2022-08-14T00:01:03.939Z,21.40
2022-08-14T00:03:40.765Z,21.21
2022-08-14T00:06:25.930Z,21.11
2022-08-14T00:08:59.084Z,21.03
2022-08-14T00:11:26.801Z,20.95
2022-08-14T00:13:57.903Z,20.98
2022-08-14T00:16:41.627Z,21.04
2022-08-14T00:19:19.462Z,21.06
2022-08-14T00:21:51.744Z,20.96
2022-08-14T00:24:23.238Z,20.91
2022-08-14T00:26:56.629Z,20.77
2022-08-14T00:29:25.690Z,20.83
2022-08-14T00:31:56.504Z,20.69
2022-08-14T00:34:35.176Z,20.70
2022-08-14T00:37:02.595Z,20.65
2022-08-14T00:39:29.602Z,20.70
2022-08-14T00:41:56.695Z,20.62
2022-08-14T00:44:27.635Z,20.70
2022-08-14T00:46:59.492Z,20.62
2022-08-14T00:49:28.614Z,20.75
2022-08-14T00:51:56.725Z,20.59
2022-08-14T00:54:24.885Z,20.49
2022-08-14T00:56:55.162Z,20.40
2022-08-14T00:59:24.630Z,20.42
2022-08-14T01:01:52.689Z,20.39
2022-08-14T01:04:51.014Z,20.36
2022-08-14T01:07:08.978Z,20.38
2022-08-14T01:09:36.473Z,20.35
2022-08-14T01:12:04.515Z,20.38
2022-08-14T01:14:31.243Z,20.39
2022-08-14T01:16:58.084Z,20.31
2022-08-14T01:19:44.876Z,20.29
2022-08-14T01:22:13.323Z,20.28
2022-08-14T01:24:45.483Z,20.44
2022-08-14T01:27:18.576Z,20.30
2022-08-14T01:30:01.477Z,20.36
2022-08-14T01:32:37.424Z,20.44
2022-08-14T01:36:03.849Z,20.26
2022-08-14T01:38:05.904Z,20.26
2022-08-14T01:40:36.389Z,20.16
2022-08-14T01:43:18.523Z,20.03
2022-08-14T01:45:59.139Z,20.10
2022-08-14T01:48:37.289Z,20.05
2022-08-14T01:51:05.814Z,19.96
2022-08-14T01:53:48.309Z,19.96
2022-08-14T01:56:22.409Z,19.92
2022-08-14T01:58:57.475Z,19.88
2022-08-14T02:01:26.720Z,19.78
2022-08-14T02:03:57.279Z,19.86
2022-08-14T02:06:32.527Z,19.72
2022-08-14T02:09:02.480Z,19.39
2022-08-14T02:11:30.923Z,19.25
2022-08-14T02:14:07.374Z,19.24
2022-08-14T02:16:39.269Z,19.19
2022-08-14T02:19:08.270Z,19.15
2022-08-14T02:21:39.605Z,19.08
2022-08-14T02:24:39.858Z,19.13
2022-08-14T02:28:22.113Z,19.14
2022-08-14T02:30:00.478Z,19.19
2022-08-14T02:32:30.466Z,19.11
2022-08-14T02:35:13.566Z,19.16
2022-08-14T02:37:48.363Z,19.07
2022-08-14T02:40:19.289Z,19.11
2022-08-14T02:42:54.704Z,19.18
2022-08-14T02:45:25.301Z,19.15
2022-08-14T02:48:06.930Z,19.06
2022-08-14T02:50:37.620Z,18.93
2022-08-14T02:53:05.760Z,19.02
2022-08-14T02:55:35.011Z,19.00
2022-08-14T02:58:03.126Z,18.93
2022-08-14T03:00:32.852Z,18.82
2022-08-14T03:02:59.868Z,18.85
2022-08-14T03:05:30.385Z,18.86
2022-08-14T03:08:07.961Z,18.83
2022-08-14T03:10:34.634Z,18.75
2022-08-14T03:13:04.644Z,18.81
2022-08-14T03:15:34.392Z,18.87
2022-08-14T03:18:00.903Z,18.89
2022-08-14T03:20:28.801Z,18.89
2022-08-14T03:22:59.289Z,18.85
2022-08-14T03:25:26.647Z,18.83
2022-08-14T03:27:59.123Z,18.88
2022-08-14T03:30:38.891Z,18.83
2022-08-14T03:33:07.972Z,18.87
2022-08-14T03:35:39.921Z,18.92
2022-08-14T03:39:12.266Z,19.05
2022-08-14T03:40:58.626Z,19.08
2022-08-14T03:43:25.460Z,18.99
2022-08-14T03:45:55.341Z,18.94
2022-08-14T03:48:30.440Z,18.77
2022-08-14T03:50:58.164Z,18.77
2022-08-14T03:53:25.393Z,18.83
2022-08-14T03:55:58.564Z,18.83
2022-08-14T03:58:35.303Z,18.86
2022-08-14T04:01:04.145Z,18.71
2022-08-14T04:03:33.018Z,18.70
2022-08-14T04:06:01.068Z,18.78
2022-08-14T04:08:30.415Z,18.88
2022-08-14T04:11:02.103Z,18.65
2022-08-14T04:13:37.406Z,18.70
2022-08-14T04:16:10.163Z,18.65
2022-08-14T04:18:44.690Z,18.58
2022-08-14T04:21:11.254Z,18.54
2022-08-14T04:23:38.738Z,18.44
2022-08-14T04:26:08.665Z,18.41
2022-08-14T04:29:05.237Z,18.41
2022-08-14T04:33:00.115Z,18.36
2022-08-14T04:34:17.293Z,18.24
2022-08-14T04:37:08.973Z,18.15
2022-08-14T04:39:56.617Z,18.03
2022-08-14T04:42:47.188Z,18.11
2022-08-14T04:45:18.641Z,18.10
2022-08-14T04:48:03.601Z,18.05
2022-08-14T04:50:43.431Z,18.15
2022-08-14T04:53:16.953Z,18.11
2022-08-14T04:55:51.669Z,18.23
2022-08-14T04:58:22.012Z,18.30
2022-08-14T05:01:00.279Z,18.40
2022-08-14T05:03:32.118Z,18.33
2022-08-14T05:06:01.006Z,18.39
2022-08-14T05:08:32.332Z,18.44
2022-08-14T05:11:16.114Z,18.45
2022-08-14T05:16:31.071Z,18.50
2022-08-14T05:19:18.095Z,18.57
2022-08-14T05:21:59.412Z,18.66
2022-08-14T05:24:28.634Z,18.75
2022-08-14T05:26:55.748Z,18.82
2022-08-14T05:29:22.967Z,18.87
2022-08-14T05:31:49.572Z,18.84
2022-08-14T05:34:23.599Z,18.87
2022-08-14T05:37:02.010Z,18.99
2022-08-14T05:39:29.797Z,19.04
2022-08-14T05:41:56.692Z,19.22
2022-08-14T05:44:27.885Z,19.36
2022-08-14T05:46:56.722Z,19.37
2022-08-14T05:49:23.360Z,19.49
2022-08-14T05:51:59.416Z,19.55
2022-08-14T05:54:28.615Z,19.54
2022-08-14T05:57:02.336Z,19.56
2022-08-14T05:59:28.754Z,19.74
2022-08-14T06:02:03.599Z,19.78
2022-08-14T06:04:32.345Z,19.91
2022-08-14T06:06:59.140Z,20.08
2022-08-14T06:09:25.551Z,20.13
2022-08-14T06:11:52.116Z,20.30
2022-08-14T06:14:24.109Z,20.21
2022-08-14T06:16:52.939Z,20.38
2022-08-14T06:19:19.939Z,20.49
2022-08-14T06:21:46.464Z,20.58
2022-08-14T06:24:18.270Z,20.70
2022-08-14T06:26:54.163Z,20.75
2022-08-14T06:29:23.545Z,20.77
2022-08-14T06:31:54.840Z,20.80
2022-08-14T06:35:03.921Z,20.84
2022-08-14T06:37:16.795Z,20.87
2022-08-14T06:39:44.438Z,21.05
2022-08-14T06:42:32.219Z,21.23
2022-08-14T06:44:58.581Z,21.34
2022-08-14T06:47:25.860Z,21.34
2022-08-14T06:49:58.008Z,21.42
2022-08-14T06:52:24.950Z,21.57
2022-08-14T06:54:51.394Z,21.67
2022-08-14T06:57:18.382Z,21.67
2022-08-14T06:59:44.827Z,21.70
2022-08-14T07:02:29.935Z,21.82
2022-08-14T07:05:21.005Z,21.96
2022-08-14T07:07:49.705Z,22.09
2022-08-14T07:10:17.490Z,22.20
2022-08-14T07:13:01.518Z,22.28
2022-08-14T07:15:32.534Z,22.34
2022-08-14T07:18:01.067Z,22.43
2022-08-14T07:20:30.906Z,22.51
2022-08-14T07:23:06.731Z,22.76
2022-08-14T07:25:35.020Z,22.69
2022-08-14T07:28:12.766Z,22.77
2022-08-14T07:30:41.822Z,22.87
2022-08-14T07:33:09.308Z,23.02
2022-08-14T07:35:57.426Z,23.14
2022-08-14T07:38:24.659Z,23.39
2022-08-14T07:40:53.056Z,23.49
2022-08-14T07:43:19.719Z,23.62
2022-08-14T07:45:47.785Z,23.66
2022-08-14T07:48:17.540Z,23.85
2022-08-14T07:50:51.781Z,23.73
2022-08-14T07:53:19.248Z,23.90
2022-08-14T07:56:00.212Z,24.05
2022-08-14T07:58:38.978Z,24.15
2022-08-14T08:01:19.071Z,24.26
2022-08-14T08:03:51.898Z,24.50
2022-08-14T08:06:23.923Z,24.37
2022-08-14T08:09:01.201Z,24.45
2022-08-14T08:11:34.892Z,24.46
2022-08-14T08:14:17.437Z,24.70
2022-08-14T08:16:47.252Z,24.91
2022-08-14T08:19:14.299Z,24.93
2022-08-14T08:21:43.538Z,25.03
2022-08-14T08:24:10.498Z,25.16
2022-08-14T08:26:38.872Z,25.38
2022-08-14T08:29:06.813Z,25.47
2022-08-14T08:31:35.417Z,25.51
2022-08-14T08:34:05.565Z,25.55
2022-08-14T08:36:41.206Z,25.74
2022-08-14T08:39:15.063Z,25.75
2022-08-14T08:41:49.490Z,25.90
2022-08-14T08:44:33.172Z,25.91
2022-08-14T08:47:07.832Z,26.01
2022-08-14T08:49:48.356Z,26.23
2022-08-14T08:52:29.077Z,26.30
2022-08-14T08:54:58.656Z,26.50
2022-08-14T08:57:25.416Z,26.47
2022-08-14T08:59:55.006Z,26.74
2022-08-14T09:02:22.487Z,26.94
2022-08-14T09:04:53.245Z,27.06
2022-08-14T09:07:26.873Z,27.11
2022-08-14T09:09:58.654Z,27.56
2022-08-14T09:12:31.861Z,27.38
2022-08-14T09:15:01.638Z,27.36
2022-08-14T09:17:28.129Z,27.46
2022-08-14T09:19:54.543Z,27.77
2022-08-14T09:22:34.991Z,27.74
2022-08-14T09:25:03.592Z,27.65
2022-08-14T09:27:33.509Z,27.98
2022-08-14T09:30:01.299Z,28.12
2022-08-14T09:32:59.155Z,28.22
2022-08-14T09:35:37.554Z,28.53
2022-08-14T09:38:26.242Z,28.62
2022-08-14T09:41:13.752Z,28.38
2022-08-14T09:43:49.093Z,28.50
2022-08-14T09:46:21.358Z,28.59
2022-08-14T09:49:03.227Z,28.49
2022-08-14T09:51:33.185Z,28.75
2022-08-14T09:54:22.627Z,28.72
2022-08-14T09:56:56.808Z,29.13
2022-08-14T09:59:28.310Z,28.93
2022-08-14T10:01:59.511Z,29.21
2022-08-14T10:04:35.708Z,29.31
2022-08-14T10:07:05.696Z,29.57
2022-08-14T10:09:33.512Z,29.80
2022-08-14T10:12:04.391Z,29.73
2022-08-14T10:14:35.664Z,29.85
2022-08-14T10:17:05.265Z,29.87
2022-08-14T10:19:35.708Z,30.09
2022-08-14T10:23:12.075Z,30.14
2022-08-14T10:24:53.756Z,29.96
2022-08-14T10:27:23.478Z,30.24
2022-08-14T10:29:52.716Z,30.33
2022-08-14T10:32:36.152Z,30.49
2022-08-14T10:35:09.272Z,30.88
2022-08-14T10:37:49.945Z,30.86
2022-08-14T10:40:43.394Z,30.84
2022-08-14T10:43:26.873Z,30.65
2022-08-14T10:46:58.992Z,30.70
2022-08-14T10:49:00.135Z,30.83
2022-08-14T10:51:30.101Z,30.47
2022-08-14T10:54:16.908Z,30.41
2022-08-14T10:56:55.690Z,30.44
2022-08-14T10:59:23.352Z,30.95
2022-08-14T11:01:59.738Z,31.27
2022-08-14T11:04:28.438Z,31.33
2022-08-14T11:06:57.382Z,31.66
2022-08-14T11:09:25.093Z,31.95
2022-08-14T11:12:34.392Z,31.72
2022-08-14T11:14:59.619Z,31.80
2022-08-14T11:17:32.056Z,31.89
2022-08-14T11:20:00.346Z,32.00
2022-08-14T11:22:55.706Z,31.66
2022-08-14T11:25:18.461Z,31.62
2022-08-14T11:27:46.364Z,31.76
2022-08-14T11:30:50.034Z,31.87
2022-08-14T11:33:07.143Z,32.20
2022-08-14T11:35:47.148Z,32.60
2022-08-14T11:38:14.422Z,32.20
2022-08-14T11:40:46.665Z,32.32
2022-08-14T11:43:14.689Z,32.65
2022-08-14T11:45:45.682Z,32.46
2022-08-14T11:49:02.853Z,32.88
2022-08-14T11:51:23.884Z,33.03
2022-08-14T11:53:57.541Z,33.65
2022-08-14T11:56:25.566Z,34.27
2022-08-14T11:58:53.707Z,34.89
2022-08-14T12:01:28.776Z,34.82
2022-08-14T12:03:59.196Z,34.71
2022-08-14T12:06:38.702Z,35.01
2022-08-14T12:09:08.741Z,35.22
2022-08-14T12:11:43.845Z,35.61
2022-08-14T12:14:30.778Z,34.62
2022-08-14T12:17:11.751Z,35.48
2022-08-14T12:19:51.284Z,35.57
2022-08-14T12:22:32.559Z,35.92
2022-08-14T12:25:00.600Z,36.43
2022-08-14T12:27:37.833Z,37.12
2022-08-14T12:30:09.041Z,36.62
2022-08-14T12:32:47.144Z,36.86
2022-08-14T12:35:14.487Z,37.11
2022-08-14T12:37:50.923Z,37.72
2022-08-14T12:40:20.740Z,37.45
2022-08-14T12:42:53.692Z,36.51
2022-08-14T12:45:33.486Z,34.91
2022-08-14T12:48:01.851Z,34.79
2022-08-14T12:50:51.595Z,33.53
2022-08-14T12:53:18.647Z,33.55
2022-08-14T12:56:18.730Z,33.85
2022-08-14T12:58:47.446Z,33.80
2022-08-14T13:01:23.734Z,34.98
2022-08-14T13:03:52.036Z,36.13
2022-08-14T13:06:19.168Z,36.51
2022-08-14T13:08:53.367Z,37.55
2022-08-14T13:11:20.513Z,38.08
2022-08-14T13:13:51.085Z,39.43
2022-08-14T13:16:20.745Z,39.17
2022-08-14T13:19:01.687Z,40.37
2022-08-14T13:21:29.782Z,40.75
2022-08-14T13:24:16.504Z,40.49
2022-08-14T13:26:47.976Z,39.81
2022-08-14T13:29:15.710Z,38.98
2022-08-14T13:31:45.515Z,39.06
2022-08-14T13:34:15.880Z,39.31
2022-08-14T13:36:54.151Z,40.02
2022-08-14T13:39:26.416Z,40.00
2022-08-14T13:41:56.097Z,40.03
2022-08-14T13:44:26.334Z,37.51
2022-08-14T13:46:52.747Z,37.74
2022-08-14T13:49:19.376Z,36.58
2022-08-14T13:51:53.006Z,36.51
2022-08-14T13:54:21.104Z,37.67
2022-08-14T13:56:48.575Z,37.25
2022-08-14T13:59:20.153Z,37.25
2022-08-14T14:01:51.925Z,37.34
2022-08-14T14:04:20.153Z,38.93
2022-08-14T14:06:48.846Z,39.89
2022-08-14T14:09:16.700Z,40.56
2022-08-14T14:11:43.795Z,41.59
2022-08-14T14:14:44.542Z,41.90
2022-08-14T14:16:59.220Z,42.45
2022-08-14T14:19:29.489Z,41.77
2022-08-14T14:21:56.492Z,42.49
2022-08-14T14:24:24.132Z,42.04
2022-08-14T14:26:54.852Z,42.07
2022-08-14T14:29:26.972Z,42.19
2022-08-14T14:31:54.789Z,41.69
2022-08-14T14:34:30.344Z,41.75
2022-08-14T14:37:02.420Z,40.82
2022-08-14T14:39:30.137Z,40.16
2022-08-14T14:41:59.523Z,39.59
2022-08-14T14:44:32.002Z,38.52
2022-08-14T14:46:59.019Z,38.33
2022-08-14T14:49:41.881Z,37.35
2022-08-14T14:52:23.348Z,37.00
2022-08-14T14:54:53.152Z,37.05
2022-08-14T14:57:19.584Z,36.56
2022-08-14T14:59:46.010Z,35.88
2022-08-14T15:02:27.075Z,35.98
2022-08-14T15:04:56.107Z,35.94
2022-08-14T15:07:22.880Z,35.64
2022-08-14T15:09:49.332Z,35.29
2022-08-14T15:12:55.329Z,34.48
2022-08-14T15:15:08.505Z,33.91
2022-08-14T15:17:41.692Z,33.72
2022-08-14T15:20:17.330Z,34.50
2022-08-14T15:22:57.469Z,34.33
2022-08-14T15:25:24.213Z,34.32
2022-08-14T15:27:51.134Z,34.10
2022-08-14T15:30:24.457Z,33.09
2022-08-14T15:32:58.757Z,33.37
2022-08-14T15:35:25.757Z,33.45
2022-08-14T15:37:56.315Z,33.42
2022-08-14T15:40:23.534Z,33.54
2022-08-14T15:42:50.061Z,34.10
2022-08-14T15:45:17.045Z,34.03
2022-08-14T15:47:43.549Z,34.18
2022-08-14T15:50:10.037Z,34.26
2022-08-14T15:52:37.408Z,34.19
2022-08-14T15:55:07.166Z,33.70
2022-08-14T15:57:34.750Z,33.44
2022-08-14T16:00:21.552Z,33.52
2022-08-14T16:03:09.619Z,33.44
2022-08-14T16:05:38.118Z,33.14
2022-08-14T16:08:29.010Z,33.26
2022-08-14T16:10:55.906Z,33.51
2022-08-14T16:13:39.009Z,33.37
2022-08-14T16:16:46.966Z,33.63
2022-08-14T16:18:58.165Z,33.88
2022-08-14T16:21:29.475Z,33.93
2022-08-14T16:23:58.372Z,33.87
2022-08-14T16:26:29.859Z,32.96
2022-08-14T16:29:07.386Z,33.02
2022-08-14T16:31:37.949Z,32.87
2022-08-14T16:34:44.573Z,33.07
2022-08-14T16:36:53.430Z,33.19
2022-08-14T16:39:21.420Z,33.27
2022-08-14T16:41:51.173Z,33.21
2022-08-14T16:44:31.934Z,33.12
2022-08-14T16:47:01.525Z,33.02
2022-08-14T16:50:03.103Z,32.94
2022-08-14T16:52:26.248Z,33.10
2022-08-14T16:55:04.060Z,32.98
2022-08-14T16:57:32.409Z,32.88
2022-08-14T16:59:59.520Z,32.63
2022-08-14T17:02:42.512Z,32.13
2022-08-14T17:05:24.672Z,31.37
2022-08-14T17:08:03.261Z,31.36
2022-08-14T17:10:52.357Z,31.40
2022-08-14T17:13:47.473Z,31.72
2022-08-14T17:16:24.292Z,31.81
2022-08-14T17:19:00.962Z,31.73
2022-08-14T17:21:32.517Z,31.49
2022-08-14T17:24:57.895Z,31.27
2022-08-14T17:26:55.155Z,31.16
2022-08-14T17:29:29.226Z,31.00
2022-08-14T17:32:01.799Z,30.94
2022-08-14T17:34:48.690Z,30.77
2022-08-14T17:37:35.447Z,30.75
2022-08-14T17:40:15.295Z,30.31
2022-08-14T17:42:51.295Z,30.27
2022-08-14T17:45:27.047Z,29.98
2022-08-14T17:47:59.173Z,29.73
2022-08-14T17:50:58.987Z,29.65
2022-08-14T17:53:27.031Z,29.94
2022-08-14T17:56:01.475Z,30.06
2022-08-14T17:58:30.968Z,30.03
2022-08-14T18:01:12.839Z,29.96
2022-08-14T18:03:49.888Z,30.19
2022-08-14T18:06:38.398Z,30.02
2022-08-14T18:09:10.607Z,30.04
2022-08-14T18:11:57.741Z,30.11
2022-08-14T18:14:31.947Z,30.10
2022-08-14T18:17:00.966Z,30.16
2022-08-14T18:19:28.982Z,29.94
2022-08-14T18:21:57.883Z,30.02
2022-08-14T18:24:29.343Z,29.77
2022-08-14T18:27:10.601Z,29.53
2022-08-14T18:29:58.931Z,29.33
2022-08-14T18:32:31.470Z,29.35
2022-08-14T18:35:11.443Z,29.30
2022-08-14T18:37:39.794Z,29.17
2022-08-14T18:40:16.051Z,29.01
2022-08-14T18:42:52.112Z,28.82
2022-08-14T18:45:29.060Z,28.54
2022-08-14T18:48:15.905Z,28.75
2022-08-14T18:50:52.436Z,28.82
2022-08-14T18:53:20.579Z,28.76
2022-08-14T18:56:09.321Z,28.64
2022-08-14T18:58:57.282Z,28.49
2022-08-14T19:01:29.504Z,28.57
2022-08-14T19:03:58.344Z,28.58
2022-08-14T19:06:43.546Z,28.51
2022-08-14T19:09:50.794Z,28.37
2022-08-14T19:12:52.450Z,27.99
2022-08-14T19:15:25.688Z,27.95
2022-08-14T19:18:14.585Z,27.99
2022-08-14T19:20:53.226Z,27.98
2022-08-14T19:23:42.432Z,27.67
2022-08-14T19:26:35.437Z,27.14
2022-08-14T19:29:35.900Z,26.41
2022-08-14T19:32:26.175Z,25.84
2022-08-14T19:34:54.303Z,25.93
2022-08-14T19:37:47.265Z,26.04
2022-08-14T19:40:33.830Z,25.66
2022-08-14T19:43:01.512Z,25.20
2022-08-14T19:45:30.168Z,25.28
2022-08-14T19:48:00.947Z,25.46
2022-08-14T19:50:38.306Z,25.43
2022-08-14T19:53:11.396Z,25.29
2022-08-14T19:55:45.667Z,25.06
2022-08-14T19:58:12.515Z,25.09
2022-08-14T20:00:51.852Z,25.05
2022-08-14T20:03:23.343Z,24.91
2022-08-14T20:06:00.391Z,24.85
2022-08-14T20:10:58.563Z,24.77
2022-08-14T20:12:01.859Z,24.69
2022-08-14T20:14:31.199Z,24.53
2022-08-14T20:17:05.614Z,24.53
2022-08-14T20:19:38.093Z,24.49
2022-08-14T20:22:36.948Z,24.26
2022-08-14T20:24:55.037Z,24.25
2022-08-14T20:27:39.376Z,24.14
2022-08-14T20:30:34.162Z,24.04
2022-08-14T20:33:07.948Z,23.86
2022-08-14T20:35:42.126Z,23.86
2022-08-14T20:38:28.998Z,23.89
2022-08-14T20:41:00.764Z,24.01
2022-08-14T20:43:53.094Z,23.98
2022-08-14T20:46:29.638Z,23.76
2022-08-14T20:49:04.720Z,23.81
2022-08-14T20:51:58.366Z,23.66
2022-08-14T20:54:36.362Z,23.75
2022-08-14T20:57:17.812Z,23.71
2022-08-14T20:59:51.998Z,23.65
2022-08-14T21:02:34.577Z,23.72
2022-08-14T21:05:17.361Z,23.63
2022-08-14T21:07:50.463Z,23.68
2022-08-14T21:10:35.916Z,23.41
2022-08-14T21:13:26.027Z,23.29
2022-08-14T21:15:57.703Z,23.17
2022-08-14T21:18:30.837Z,23.14
2022-08-14T21:21:00.967Z,23.19
2022-08-14T21:23:35.652Z,23.19
2022-08-14T21:26:50.536Z,23.17
2022-08-14T21:29:11.159Z,23.03
2022-08-14T21:31:38.402Z,23.09
2022-08-14T21:34:05.521Z,23.20
2022-08-14T21:36:54.306Z,22.87
2022-08-14T21:39:22.213Z,22.87
2022-08-14T21:41:59.192Z,22.81
2022-08-14T21:44:44.025Z,22.68
2022-08-14T21:47:12.629Z,22.69
2022-08-14T21:49:40.001Z,22.74
2022-08-14T21:52:52.257Z,22.60
2022-08-14T21:54:59.177Z,22.46
2022-08-14T21:58:44.657Z,22.47
2022-08-14T22:00:35.560Z,22.57
2022-08-14T22:03:02.269Z,22.56
2022-08-14T22:05:29.576Z,22.60
2022-08-14T22:07:57.024Z,22.53
2022-08-14T22:10:24.397Z,22.57
2022-08-14T22:13:00.880Z,22.49
2022-08-14T22:15:29.840Z,22.46
2022-08-14T22:17:58.182Z,22.44
2022-08-14T22:20:28.123Z,22.26
2022-08-14T22:22:56.184Z,22.05
2022-08-14T22:25:31.924Z,21.86
2022-08-14T22:28:02.960Z,21.96
2022-08-14T22:30:30.266Z,21.92
2022-08-14T22:32:58.481Z,22.08
2022-08-14T22:35:27.800Z,21.96
2022-08-14T22:38:01.912Z,22.04
2022-08-14T22:40:58.404Z,22.13
2022-08-14T22:43:31.428Z,22.19
2022-08-14T22:46:02.498Z,22.08
2022-08-14T22:48:29.618Z,21.91
2022-08-14T22:50:56.110Z,21.88
2022-08-14T22:53:23.808Z,21.86
2022-08-14T22:55:55.584Z,21.78
2022-08-14T22:58:30.264Z,21.70
2022-08-14T23:01:00.967Z,21.87
2022-08-14T23:03:27.555Z,21.90
2022-08-14T23:05:55.405Z,21.84
2022-08-14T23:08:59.205Z,21.66
2022-08-14T23:11:10.265Z,21.66
2022-08-14T23:13:43.725Z,21.70
2022-08-14T23:16:20.260Z,21.58
2022-08-14T23:18:47.386Z,21.63
2022-08-14T23:21:22.032Z,21.61
2022-08-14T23:23:55.193Z,21.71
2022-08-14T23:26:48.148Z,21.86
2022-08-14T23:29:11.263Z,21.41
2022-08-14T23:31:39.336Z,21.30
2022-08-14T23:34:09.492Z,21.18
2022-08-14T23:36:54.578Z,21.32
2022-08-14T23:39:29.963Z,21.54
2022-08-14T23:42:02.110Z,21.55
2022-08-14T23:44:32.057Z,21.46
2022-08-14T23:47:10.794Z,21.37
2022-08-14T23:50:01.471Z,21.24
2022-08-14T23:52:50.186Z,20.99
2022-08-14T23:55:12.932Z,20.85
2022-08-14T23:57:43.917Z,20.92
